Csl Sophie — 9HA4541 — position and weather

sailwx.info

Track history (hours):
 
Tides and Currents Weather Stations Pressure Air Temp Water Temp Dewpoint Dewpoint Depression Visibility Wind Speed Wind Dir Waves Ship Positions

Csl Sophie

Last reported at 2017-Oct-05 13:21 UTC. Time now 2017-Oct-18 16:36 UTC.
Position N 36°14' E 015°02'.
Warning: this ship's position is 13 days out of date.

Length 294 m; draft 9 m.

Type: Cargo ship. MMSI: 248166000.

Date/timePositionNaut miles runAvg speedWind from/ knotsBaromVisibWave heightAir tempDewpointWater temp
2017-Oct-05 13:21N 36°14' E 015°02'512.5
2017-Oct-05 12:59N 36°15' E 014°57'612.5
2017-Oct-05 12:30N 36°17' E 014°49'612.3
2017-Oct-05 12:00N 36°19' E 014°42'612.0
2017-Oct-05 11:30N 36°21' E 014°35'611.8
2017-Oct-05 11:00N 36°22' E 014°28'611.8
2017-Oct-05 10:30N 36°24' E 014°21'612.0
2017-Oct-05 10:00N 36°26' E 014°14'612.2
2017-Oct-05 09:30N 36°28' E 014°07'612.3
2017-Oct-05 09:00N 36°30' E 013°60'612.1
2017-Oct-05 08:30N 36°31' E 013°52'611.6
2017-Oct-05 07:59N 36°33' E 013°45'611.5
2017-Oct-05 07:30N 36°35' E 013°39'611.3
2017-Oct-05 07:00N 36°36' E 013°32'610.6
2017-Oct-05 06:27N 36°39' E 013°25'510.9
2017-Oct-05 06:00N 36°40' E 013°19'611.4
2017-Oct-05 05:30N 36°42' E 013°12'  
2017-Oct-02 04:22N 36°02' W 004°56'512.7
2017-Oct-02 03:58N 36°02' W 005°02'612.9
2017-Oct-02 03:30N 36°01' W 005°09'612.9
2017-Oct-02 03:00N 35°60' W 005°17'612.6
2017-Oct-02 02:30N 35°58' W 005°25'1113.2
2017-Oct-02 01:42N 35°55' W 005°37'714.0
2017-Oct-02 01:11N 35°54' W 005°46'213.2
2017-Oct-02 01:00N 35°54' W 005°49'713.3
2017-Oct-02 00:30N 35°54' W 005°57'1713.1
2017-Oct-01 23:14N 35°54' W 006°18'313.2
2017-Oct-01 22:59N 35°54' W 006°22'1613.0
2017-Oct-01 21:43N 35°55' W 006°42'312.6
2017-Oct-01 21:29N 35°56' W 006°46'1612.5
2017-Oct-01 20:15N 35°57' W 007°05'412.5
2017-Oct-01 19:56N 35°57' W 007°10'9912.6
2017-Oct-01 12:05N 36°04' W 009°12'112.5
2017-Oct-01 12:00N 36°04' W 009°13'612.2
2017-Oct-01 11:30N 36°04' W 009°20'611.7
2017-Oct-01 10:58N 36°05' W 009°28'611.6
2017-Oct-01 10:30N 36°05' W 009°35'611.5
2017-Oct-01 09:59N 36°05' W 009°42'  
Track history (hours):
 
Tides and Currents Weather Stations Pressure Air Temp Water Temp Dewpoint Dewpoint Depression Visibility Wind Speed Wind Dir Waves Ship Positions

Csl Sophie

Last reported at 2017-Oct-05 13:21 UTC. Time now 2017-Oct-18 16:36 UTC.
Position N 36°14' E 015°02'.
Warning: this ship's position is 13 days out of date.

Length 294 m; draft 9 m.

Type: Cargo ship. MMSI: 248166000.

Date/timePositionNaut miles runAvg speedWind from/ knotsBaromVisibWave heightAir tempDewpointWater temp
2017-Oct-05 13:21N 36°14' E 015°02'512.5
2017-Oct-05 12:59N 36°15' E 014°57'612.5
2017-Oct-05 12:30N 36°17' E 014°49'612.3
2017-Oct-05 12:00N 36°19' E 014°42'612.0
2017-Oct-05 11:30N 36°21' E 014°35'611.8
2017-Oct-05 11:00N 36°22' E 014°28'611.8
2017-Oct-05 10:30N 36°24' E 014°21'612.0
2017-Oct-05 10:00N 36°26' E 014°14'612.2
2017-Oct-05 09:30N 36°28' E 014°07'612.3
2017-Oct-05 09:00N 36°30' E 013°60'612.1
2017-Oct-05 08:30N 36°31' E 013°52'611.6
2017-Oct-05 07:59N 36°33' E 013°45'611.5
2017-Oct-05 07:30N 36°35' E 013°39'611.3
2017-Oct-05 07:00N 36°36' E 013°32'610.6
2017-Oct-05 06:27N 36°39' E 013°25'510.9
2017-Oct-05 06:00N 36°40' E 013°19'611.4
2017-Oct-05 05:30N 36°42' E 013°12'  
2017-Oct-02 04:22N 36°02' W 004°56'512.7
2017-Oct-02 03:58N 36°02' W 005°02'612.9
2017-Oct-02 03:30N 36°01' W 005°09'612.9
2017-Oct-02 03:00N 35°60' W 005°17'612.6
2017-Oct-02 02:30N 35°58' W 005°25'1113.2
2017-Oct-02 01:42N 35°55' W 005°37'714.0
2017-Oct-02 01:11N 35°54' W 005°46'213.2
2017-Oct-02 01:00N 35°54' W 005°49'713.3
2017-Oct-02 00:30N 35°54' W 005°57'1713.1
2017-Oct-01 23:14N 35°54' W 006°18'313.2
2017-Oct-01 22:59N 35°54' W 006°22'1613.0
2017-Oct-01 21:43N 35°55' W 006°42'312.6
2017-Oct-01 21:29N 35°56' W 006°46'1612.5
2017-Oct-01 20:15N 35°57' W 007°05'412.5
2017-Oct-01 19:56N 35°57' W 007°10'9912.6
2017-Oct-01 12:05N 36°04' W 009°12'112.5
2017-Oct-01 12:00N 36°04' W 009°13'612.2
2017-Oct-01 11:30N 36°04' W 009°20'611.7
2017-Oct-01 10:58N 36°05' W 009°28'611.6
2017-Oct-01 10:30N 36°05' W 009°35'611.5
2017-Oct-01 09:59N 36°05' W 009°42'  

Dump ship's entire track history